Time;durP1;ratioP1;P1;durP2;ratioP2;P2;SDS_P1;SDS_P2;PMS_P1;PMS_P2;Temp;Humidity;BMP_temperature;BMP_pressure;BME280_temperature;BME280_humidity;BME280_pressure;Samples;Min_cycle;Max_cycle;Signal;HPM_P1;HPM_P2
2022/08/01 00:00:10;;;;;;;6.87;5.90;;;;;;;17.99;100.00;97555.36;1725256;83;21127;-65
2022/08/01 00:02:37;;;;;;;7.75;6.10;;;;;;;17.94;100.00;97548.28;1725200;83;21417;-66
2022/08/01 00:05:05;;;;;;;7.92;6.40;;;;;;;17.91;100.00;97554.95;1725258;83;20954;-65
2022/08/01 00:07:34;;;;;;;6.78;6.10;;;;;;;17.85;100.00;97549.58;1725237;83;21549;-65
2022/08/01 00:10:07;;;;;;;7.12;6.33;;;;;;;17.81;100.00;97547.33;1725362;83;20870;-65
2022/08/01 00:12:34;;;;;;;8.73;6.00;;;;;;;17.78;100.00;97545.53;1724374;83;21114;-66
2022/08/01 00:15:01;;;;;;;10.10;6.10;;;;;;;17.74;100.00;97544.66;1725320;83;20898;-65
2022/08/01 00:17:27;;;;;;;10.45;6.55;;;;;;;17.69;100.00;97547.62;1725489;83;20871;-66
2022/08/01 00:19:54;;;;;;;8.88;6.75;;;;;;;17.58;100.00;97547.91;1725365;83;20961;-66
2022/08/01 00:22:20;;;;;;;9.75;6.08;;;;;;;17.51;100.00;97552.31;1725411;83;20902;-66
2022/08/01 00:24:47;;;;;;;8.28;5.22;;;;;;;17.46;100.00;97549.28;1725384;83;21111;-67
2022/08/01 00:27:14;;;;;;;5.83;4.70;;;;;;;17.44;100.00;97555.61;1725322;83;20957;-67
2022/08/01 00:29:41;;;;;;;9.48;5.28;;;;;;;17.43;100.00;97558.09;1702845;83;20906;-66
2022/08/01 00:32:07;;;;;;;10.32;5.30;;;;;;;17.43;100.00;97564.09;1725641;83;21410;-67
2022/08/01 00:34:34;;;;;;;6.47;5.03;;;;;;;17.40;100.00;97560.15;1725481;83;20985;-66
2022/08/01 00:37:01;;;;;;;7.72;5.10;;;;;;;17.39;100.00;97561.27;1725484;83;21118;-66
2022/08/01 00:39:27;;;;;;;7.92;5.00;;;;;;;17.35;100.00;97559.03;1725406;83;20871;-66
2022/08/01 00:41:54;;;;;;;6.95;4.70;;;;;;;17.31;100.00;97558.12;1725367;83;20902;-66
2022/08/01 00:44:20;;;;;;;7.42;4.80;;;;;;;17.27;100.00;97558.60;1725456;83;20886;-66
2022/08/01 00:46:47;;;;;;;7.85;5.28;;;;;;;17.23;100.00;97564.48;1725367;83;20939;-66
2022/08/01 00:49:13;;;;;;;6.87;5.58;;;;;;;17.20;100.00;97555.69;1738767;82;21217;-68
2022/08/01 00:51:40;;;;;;;10.00;5.78;;;;;;;17.18;100.00;97558.52;1738824;82;20951;-67
2022/08/01 00:54:06;;;;;;;7.97;5.80;;;;;;;17.16;100.00;97558.88;1739034;82;20893;-66
2022/08/01 00:56:33;;;;;;;6.70;6.00;;;;;;;17.19;100.00;97554.13;1739015;82;20975;-67
2022/08/01 00:58:59;;;;;;;10.82;6.50;;;;;;;17.21;100.00;97554.58;1738946;82;20948;-67
2022/08/01 01:01:26;;;;;;;9.33;7.15;;;;;;;17.25;100.00;97554.10;1738939;82;21109;-67
2022/08/01 01:03:52;;;;;;;8.68;7.12;;;;;;;17.28;100.00;97553.42;1738821;82;21007;-67
2022/08/01 01:06:46;;;;;;;11.95;6.60;;;;;;;17.29;100.00;97549.56;1738917;82;20893;-67
2022/08/01 01:09:52;;;;;;;12.13;7.12;;;;;;;17.32;100.00;97556.22;1738620;82;20940;-66
2022/08/01 01:12:35;;;;;;;9.98;7.80;;;;;;;17.28;100.00;97552.63;1688624;85;20951;-66
2022/08/01 01:15:18;;;;;;;9.43;8.05;;;;;;;17.20;100.00;97557.05;1733927;82;21256;-68
2022/08/01 01:18:04;;;;;;;8.50;7.15;;;;;;;17.17;100.00;97555.02;1738941;82;20932;-67
2022/08/01 01:20:36;;;;;;;9.80;6.85;;;;;;;17.12;100.00;97560.69;1738934;82;20992;-67
2022/08/01 01:23:20;;;;;;;10.55;7.53;;;;;;;17.08;100.00;97559.78;1738764;82;21053;-68
2022/08/01 01:26:15;;;;;;;10.78;7.65;;;;;;;17.08;100.00;97558.42;1739036;82;20983;-68
2022/08/01 01:29:24;;;;;;;9.70;8.18;;;;;;;17.09;100.00;97549.20;1739038;82;21115;-67
2022/08/01 01:32:05;;;;;;;8.53;7.45;;;;;;;17.08;100.00;97555.72;1738833;82;20920;-67
2022/08/01 01:34:37;;;;;;;9.25;7.08;;;;;;;17.01;100.00;97548.75;1738930;82;20892;-67
2022/08/01 01:37:08;;;;;;;7.85;7.05;;;;;;;16.99;100.00;97555.08;1738583;82;20956;-67
2022/08/01 01:39:34;;;;;;;8.90;7.40;;;;;;;16.98;100.00;97560.28;1739151;82;21003;-66
2022/08/01 01:42:02;;;;;;;12.50;8.08;;;;;;;16.96;100.00;97560.60;1719902;82;21119;-67
2022/08/01 01:44:29;;;;;;;10.45;7.53;;;;;;;16.94;100.00;97556.66;1738805;82;20924;-68
2022/08/01 01:46:56;;;;;;;9.95;7.22;;;;;;;16.88;100.00;97553.98;1738854;82;20940;-68
2022/08/01 01:49:25;;;;;;;17.55;7.03;;;;;;;16.84;100.00;97557.15;1726653;82;21004;-67
2022/08/01 01:51:53;;;;;;;11.93;6.30;;;;;;;16.82;100.00;97552.63;1725308;83;20831;-68
2022/08/01 01:54:19;;;;;;;9.40;5.92;;;;;;;16.83;100.00;97559.62;1725310;83;21140;-68
2022/08/01 01:56:48;;;;;;;6.20;5.60;;;;;;;16.81;100.00;97571.34;1725521;83;21442;-68
2022/08/01 01:59:20;;;;;;;6.33;4.60;;;;;;;16.83;100.00;97559.62;1725308;83;20957;-68
2022/08/01 02:01:51;;;;;;;5.72;4.25;;;;;;;16.83;100.00;97552.86;1725289;83;20878;-67
2022/08/01 02:04:17;;;;;;;5.60;3.98;;;;;;;16.82;100.00;97556.12;1725503;83;21378;-68
2022/08/01 02:06:46;;;;;;;4.62;3.60;;;;;;;16.84;100.00;97555.80;1725406;83;21116;-68
2022/08/01 02:09:19;;;;;;;9.30;4.55;;;;;;;16.85;100.00;97558.15;1749771;81;21567;-68
2022/08/01 02:11:47;;;;;;;6.80;4.40;;;;;;;16.87;100.00;97555.89;1725254;83;20914;-68
2022/08/01 02:14:14;;;;;;;4.42;4.03;;;;;;;16.88;100.00;97562.89;1725538;83;20940;-68
2022/08/01 02:16:44;;;;;;;6.80;4.17;;;;;;;16.87;100.00;97553.74;1725416;83;20859;-68
2022/08/01 02:19:11;;;;;;;5.70;3.62;;;;;;;16.88;100.00;97555.33;1725310;83;21210;-68
2022/08/01 02:21:42;;;;;;;5.62;3.83;;;;;;;16.87;100.00;97555.09;1725316;83;20867;-68
2022/08/01 02:24:16;;;;;;;5.37;3.98;;;;;;;16.87;100.00;97553.74;1725643;83;21405;-69
2022/08/01 02:26:47;;;;;;;5.05;3.58;;;;;;;16.86;100.00;97549.48;1725522;83;20953;-68
2022/08/01 02:29:18;;;;;;;5.15;3.67;;;;;;;16.86;100.00;97553.53;1725433;83;20925;-67
2022/08/01 02:31:46;;;;;;;7.55;3.80;;;;;;;16.86;100.00;97547.54;1725468;83;21298;-68
2022/08/01 02:34:16;;;;;;;4.58;3.70;;;;;;;16.87;100.00;97551.83;1725317;83;20937;-68
2022/08/01 02:36:44;;;;;;;4.28;3.70;;;;;;;16.86;100.00;97552.19;1725400;83;21446;-68
2022/08/01 02:39:14;;;;;;;4.80;3.35;;;;;;;16.86;100.00;97553.53;1725273;83;20882;-68
2022/08/01 02:41:43;;;;;;;5.25;3.67;;;;;;;16.83;100.00;97555.56;1725574;83;20898;-68
2022/08/01 02:44:12;;;;;;;6.60;3.92;;;;;;;16.81;100.00;97555.12;1725405;83;21207;-69
2022/08/01 02:46:43;;;;;;;5.62;3.92;;;;;;;16.78;100.00;97560.64;1725234;83;20827;-69
2022/08/01 02:49:09;;;;;;;7.17;4.40;;;;;;;16.74;100.00;97560.31;1734893;82;20853;-68
2022/08/01 02:51:36;;;;;;;6.00;4.70;;;;;;;16.71;100.00;97558.28;1738795;82;20975;-68
2022/08/01 02:54:05;;;;;;;6.53;5.00;;;;;;;16.67;100.00;97557.39;1738836;82;21035;-68
2022/08/01 02:56:34;;;;;;;5.90;4.42;;;;;;;16.66;100.00;97554.45;1738808;82;21102;-69
2022/08/01 02:59:05;;;;;;;6.17;4.85;;;;;;;16.63;100.00;97555.91;1738879;82;21622;-69
2022/08/01 03:01:35;;;;;;;5.72;4.30;;;;;;;16.61;100.00;97557.38;1738913;82;20923;-69
2022/08/01 03:04:04;;;;;;;5.78;4.00;;;;;;;16.58;100.00;97552.67;1739102;82;20892;-69
2022/08/01 03:06:33;;;;;;;4.40;3.27;;;;;;;16.57;100.00;97555.14;1719754;82;21420;-67
2022/08/01 03:09:03;;;;;;;5.45;3.50;;;;;;;16.54;100.00;97561.21;1738833;82;21206;-68
2022/08/01 03:11:30;;;;;;;6.28;3.40;;;;;;;16.52;100.00;97562.12;1719813;82;21471;-68
2022/08/01 03:16:36;;;;;;;5.90;4.10;;;;;;;16.53;100.00;97547.48;1738900;82;21010;-68
2022/08/01 03:19:02;;;;;;;5.42;3.65;;;;;;;16.54;100.00;97546.34;1738845;82;20981;-68
2022/08/01 03:21:29;;;;;;;4.45;3.50;;;;;;;16.53;100.00;97552.89;1738924;82;21117;-69
2022/08/01 03:23:56;;;;;;;5.92;4.00;;;;;;;16.48;100.00;97543.62;1738760;82;20928;-68
2022/08/01 03:26:27;;;;;;;4.60;3.27;;;;;;;16.44;100.00;97545.64;1738889;82;21449;-68
2022/08/01 03:28:57;;;;;;;4.00;3.60;;;;;;;16.42;100.00;97549.81;1738833;82;20936;-69
2022/08/01 03:31:23;;;;;;;6.53;4.20;;;;;;;16.46;100.00;97553.44;1738911;82;20967;-69
2022/08/01 03:33:50;;;;;;;5.78;4.40;;;;;;;16.53;100.00;97551.54;1739133;82;21404;-68
2022/08/01 03:36:16;;;;;;;4.55;4.15;;;;;;;16.57;100.00;97552.44;1738763;82;20972;-69
2022/08/01 03:38:43;;;;;;;4.70;4.28;;;;;;;16.58;100.00;97554.02;1738916;82;20972;-69
2022/08/01 03:41:13;;;;;;;5.95;3.75;;;;;;;16.57;100.00;97564.59;1738898;82;21407;-70
2022/08/01 03:43:43;;;;;;;4.85;3.95;;;;;;;16.56;100.00;97569.80;1738667;82;20893;-69
2022/08/01 03:46:15;;;;;;;6.20;4.10;;;;;;;16.53;100.00;97565.06;1736742;82;21617;-67
2022/08/01 03:48:45;;;;;;;4.55;4.20;;;;;;;16.50;100.00;97573.25;1732448;82;20972;-67
2022/08/01 03:51:12;;;;;;;4.22;3.83;;;;;;;16.49;100.00;97581.12;1735822;82;21316;-67
2022/08/01 03:53:39;;;;;;;4.17;3.70;;;;;;;16.54;100.00;97578.78;1738977;82;21460;-67
2022/08/01 03:56:08;;;;;;;4.97;4.20;;;;;;;16.60;100.00;97585.56;1738955;82;20897;-68
2022/08/01 03:58:34;;;;;;;6.67;3.98;;;;;;;16.64;100.00;97581.04;1738938;82;21140;-68
2022/08/01 04:01:00;;;;;;;4.70;4.15;;;;;;;16.63;100.00;97578.13;1738914;82;20905;-68
2022/08/01 04:03:26;;;;;;;5.47;3.90;;;;;;;16.62;100.00;97584.66;1739076;82;21448;-67
2022/08/01 04:05:53;;;;;;;3.98;3.60;;;;;;;16.58;100.00;97584.52;1738937;82;20963;-69
2022/08/01 04:08:19;;;;;;;4.30;3.70;;;;;;;16.60;100.00;97585.00;1739280;82;20924;-69
2022/08/01 04:10:46;;;;;;;6.72;4.28;;;;;;;16.60;100.00;97586.91;1739031;82;21227;-69
2022/08/01 04:13:12;;;;;;;5.12;4.05;;;;;;;16.61;100.00;97581.71;1738962;82;21019;-68
2022/08/01 04:15:39;;;;;;;4.10;3.70;;;;;;;16.60;100.00;97584.20;1739026;82;20892;-69
2022/08/01 04:18:06;;;;;;;6.78;4.25;;;;;;;16.58;100.00;97583.17;1739246;82;21419;-68
2022/08/01 04:20:33;;;;;;;5.33;4.12;;;;;;;16.58;100.00;97584.52;1738958;82;21045;-68
2022/08/01 04:22:59;;;;;;;4.67;3.87;;;;;;;16.62;100.00;97592.77;1739253;82;21972;-68
2022/08/01 04:25:29;;;;;;;5.60;4.15;;;;;;;16.65;100.00;97590.75;1738976;82;21460;-68
2022/08/01 04:27:56;;;;;;;6.35;4.50;;;;;;;16.68;100.00;97596.25;1739295;82;21433;-68
2022/08/01 04:30:26;;;;;;;6.47;4.35;;;;;;;16.74;100.00;97590.06;1739072;82;20928;-67
2022/08/01 04:32:55;;;;;;;6.15;4.78;;;;;;;16.73;100.00;97591.17;1738990;82;20979;-67
2022/08/01 04:35:21;;;;;;;5.03;4.12;;;;;;;16.69;100.00;97595.13;1739210;82;21084;-67
2022/08/01 04:37:48;;;;;;;5.08;4.00;;;;;;;16.69;100.00;97592.98;1738911;82;20975;-68
2022/08/01 04:40:15;;;;;;;6.53;4.40;;;;;;;16.71;100.00;97596.13;1743186;82;20940;-67
2022/08/01 04:42:41;;;;;;;7.60;5.12;;;;;;;16.75;100.00;97588.91;1739037;82;20897;-67
2022/08/01 04:45:08;;;;;;;6.87;4.80;;;;;;;16.80;100.00;97587.33;1738133;82;20877;-67
2022/08/01 04:47:36;;;;;;;6.60;4.62;;;;;;;16.83;100.00;97581.25;1738935;82;21246;-68
2022/08/01 04:50:08;;;;;;;6.45;4.22;;;;;;;16.86;100.00;97579.23;1738880;82;20920;-67
2022/08/01 04:52:36;;;;;;;4.70;4.30;;;;;;;16.89;100.00;97577.97;1719153;82;20967;-68
2022/08/01 04:55:08;;;;;;;10.80;4.75;;;;;;;16.94;100.00;97576.95;1737904;82;20972;-69
2022/08/01 04:57:39;;;;;;;7.12;4.42;;;;;;;16.98;100.00;97571.86;1738614;82;20987;-68
2022/08/01 05:00:07;;;;;;;4.35;3.72;;;;;;;17.01;100.00;97575.81;1737574;82;21707;-68
2022/08/01 05:02:33;;;;;;;4.58;3.80;;;;;;;17.02;100.00;97573.34;1738521;82;20956;-68
2022/08/01 05:05:00;;;;;;;5.83;3.65;;;;;;;17.00;100.00;97568.84;1738521;82;20865;-68
2022/08/01 05:07:26;;;;;;;3.70;3.05;;;;;;;17.00;100.00;97575.02;1738978;82;20976;-69
2022/08/01 05:09:53;;;;;;;5.42;3.90;;;;;;;17.04;100.00;97569.72;1738930;82;20975;-65
2022/08/01 05:12:20;;;;;;;5.08;3.70;;;;;;;17.08;99.70;97572.75;1738993;82;21218;-68
2022/08/01 05:14:47;;;;;;;4.45;3.77;;;;;;;17.08;99.52;97576.02;1737748;81;20936;-67
2022/08/01 05:17:13;;;;;;;4.17;3.70;;;;;;;17.09;99.90;97577.61;1731395;82;21054;-69
2022/08/01 05:19:40;;;;;;;7.35;3.40;;;;;;;17.15;99.95;97580.84;1725136;82;21417;-69
2022/08/01 05:22:08;;;;;;;3.10;2.80;;;;;;;17.16;99.05;97569.70;1733508;82;20977;-69
2022/08/01 05:24:37;;;;;;;3.65;3.02;;;;;;;17.15;98.72;97580.28;1730266;82;21223;-69
2022/08/01 05:27:04;;;;;;;3.83;3.40;;;;;;;17.12;98.60;97579.64;1730009;83;21480;-67
2022/08/01 05:29:31;;;;;;;3.65;3.27;;;;;;;17.13;98.45;97580.40;1738310;82;20928;-68
2022/08/01 05:31:58;;;;;;;2.72;2.52;;;;;;;17.15;98.05;97587.05;1738937;82;20936;-69
2022/08/01 05:34:25;;;;;;;5.47;2.90;;;;;;;17.18;98.28;97594.48;1733077;82;21537;-68
2022/08/01 05:36:53;;;;;;;5.33;3.10;;;;;;;17.19;98.19;97592.58;1729936;83;21386;-68
2022/08/01 05:39:19;;;;;;;4.08;3.10;;;;;;;17.23;98.29;97593.46;1730310;83;20931;-69
2022/08/01 05:41:46;;;;;;;6.47;2.95;;;;;;;17.30;97.97;97593.67;1730785;81;21103;-68
2022/08/01 05:44:13;;;;;;;3.20;2.47;;;;;;;17.29;97.30;97594.23;1737333;81;20983;-69
2022/08/01 05:46:39;;;;;;;4.35;2.65;;;;;;;17.28;97.24;97598.08;1727263;82;20843;-68
2022/08/01 05:49:06;;;;;;;3.87;2.90;;;;;;;17.26;96.54;97600.34;1746299;81;21253;-68
2022/08/01 05:51:33;;;;;;;4.08;3.00;;;;;;;17.21;96.65;97599.23;1741349;80;21019;-67
2022/08/01 05:54:00;;;;;;;3.85;3.00;;;;;;;17.21;96.65;97595.17;1730164;81;21079;-67
2022/08/01 05:56:26;;;;;;;2.77;2.55;;;;;;;17.27;96.71;97597.84;1735683;81;21028;-67
2022/08/01 05:58:53;;;;;;;4.47;2.95;;;;;;;17.30;96.91;97599.08;1730303;80;21593;-68
2022/08/01 06:01:20;;;;;;;5.47;3.17;;;;;;;17.33;96.53;97596.49;1733026;80;21115;-67
2022/08/01 06:03:47;;;;;;;3.35;3.05;;;;;;;17.38;96.74;97598.94;1730559;80;21018;-71
2022/08/01 06:06:14;;;;;;;3.67;2.83;;;;;;;17.45;95.69;97601.84;1755940;79;21136;-66
2022/08/01 06:08:41;;;;;;;3.40;2.60;;;;;;;17.45;95.53;97601.84;1762886;79;48106;-67
2022/08/01 06:11:09;;;;;;;3.87;2.47;;;;;;;17.45;94.86;97601.08;1769293;79;21343;-67
2022/08/01 06:13:37;;;;;;;5.00;3.08;;;;;;;17.46;95.02;97591.80;1745898;79;21242;-65
2022/08/01 06:16:05;;;;;;;3.42;3.12;;;;;;;17.51;95.03;97596.45;1757431;79;20987;-65
2022/08/01 06:18:31;;;;;;;3.12;2.83;;;;;;;17.59;94.94;97600.92;1763775;79;21130;-66
2022/08/01 06:20:58;;;;;;;2.47;2.27;;;;;;;17.65;93.96;97603.62;1764895;80;20939;-65
2022/08/01 06:23:24;;;;;;;3.22;2.60;;;;;;;17.66;93.44;97605.17;1758472;80;21027;-66
2022/08/01 06:25:54;;;;;;;2.90;2.58;;;;;;;17.67;93.40;97604.06;1744758;80;21099;-64
2022/08/01 06:28:22;;;;;;;3.40;2.22;;;;;;;17.70;93.12;97608.79;1744608;80;21095;-64
2022/08/01 06:30:50;;;;;;;5.12;2.80;;;;;;;17.70;93.27;97602.58;1745335;80;21122;-65
2022/08/01 06:33:16;;;;;;;2.60;2.10;;;;;;;17.73;92.85;97604.02;1762210;80;20932;-64
2022/08/01 06:35:43;;;;;;;3.85;2.30;;;;;;;17.70;92.74;97604.73;1740363;80;21063;-64
2022/08/01 06:38:09;;;;;;;3.15;2.22;;;;;;;17.67;92.94;97599.99;1741521;80;21251;-65
2022/08/01 06:40:36;;;;;;;3.45;2.80;;;;;;;17.68;92.92;97598.08;1741984;82;21028;-66
2022/08/01 06:43:03;;;;;;;3.52;2.40;;;;;;;17.68;93.28;97599.44;1751247;80;21102;-66
2022/08/01 06:45:30;;;;;;;3.08;2.25;;;;;;;17.75;93.55;97595.00;1751581;80;21050;-65
2022/08/01 06:47:56;;;;;;;3.05;2.27;;;;;;;17.87;93.20;97600.13;1726039;81;21078;-66
2022/08/01 06:50:23;;;;;;;4.70;2.75;;;;;;;17.94;92.85;97600.33;1748291;80;21109;-66
2022/08/01 06:52:49;;;;;;;4.35;2.60;;;;;;;18.00;92.27;97604.34;1743927;80;20939;-65
2022/08/01 06:55:16;;;;;;;2.75;2.20;;;;;;;18.01;91.70;97604.58;1745680;80;21019;-66
2022/08/01 06:57:50;;;;;;;4.47;2.70;;;;;;;17.99;91.61;97604.93;1723671;80;21200;-66
2022/08/01 07:00:20;;;;;;;3.45;2.20;;;;;;;18.06;91.63;97605.12;1739297;80;21074;-66
2022/08/01 07:02:46;;;;;;;6.85;3.70;;;;;;;18.10;91.25;97606.55;1734169;80;21122;-66
2022/08/01 07:05:13;;;;;;;3.90;2.25;;;;;;;18.10;91.44;97603.28;1745119;80;20956;-65
2022/08/01 07:07:40;;;;;;;3.42;2.50;;;;;;;18.12;91.30;97602.92;1739091;80;21042;-66
2022/08/01 07:10:08;;;;;;;4.53;2.62;;;;;;;18.10;90.85;97610.05;1732067;80;21530;-65
2022/08/01 07:12:37;;;;;;;3.67;2.22;;;;;;;18.09;90.93;97604.99;1752582;81;21091;-67
2022/08/01 07:15:06;;;;;;;3.50;2.15;;;;;;;18.07;89.96;97612.09;1733322;81;21634;-67
2022/08/01 07:17:32;;;;;;;2.05;1.85;;;;;;;18.06;90.22;97609.74;1753535;80;21114;-65
2022/08/01 07:19:59;;;;;;;2.83;1.85;;;;;;;18.07;90.62;97612.09;1750800;80;21125;-65
2022/08/01 07:22:25;;;;;;;2.02;1.82;;;;;;;18.16;90.70;97609.24;1730065;80;21470;-65
2022/08/01 07:24:52;;;;;;;3.15;2.27;;;;;;;18.23;90.38;97606.71;1724083;80;21573;-65
2022/08/01 07:27:19;;;;;;;2.75;2.00;;;;;;;18.23;89.92;97601.29;1743103;80;21773;-64
2022/08/01 07:29:46;;;;;;;2.12;1.82;;;;;;;18.24;89.90;97604.20;1752935;80;21123;-65
2022/08/01 07:32:12;;;;;;;3.83;2.35;;;;;;;18.29;90.01;97603.95;1772417;80;21471;-66
2022/08/01 07:34:39;;;;;;;1.80;1.70;;;;;;;18.34;89.65;97607.76;1769427;80;20965;-66
2022/08/01 07:37:06;;;;;;;2.60;2.05;;;;;;;18.40;89.23;97609.06;1742680;82;21098;-66
2022/08/01 07:39:32;;;;;;;3.02;2.27;;;;;;;18.43;88.84;97609.16;1742022;81;21110;-66
2022/08/01 07:41:59;;;;;;;2.67;2.47;;;;;;;18.40;88.80;97608.50;1753309;80;21056;-65
2022/08/01 07:44:25;;;;;;;3.58;2.70;;;;;;;18.37;88.02;97607.83;1762692;80;20975;-65
2022/08/01 07:46:52;;;;;;;3.77;2.40;;;;;;;18.38;88.21;97611.34;1752078;80;21058;-65
2022/08/01 07:49:18;;;;;;;8.03;2.52;;;;;;;18.41;88.20;97611.44;1751997;80;21056;-65
2022/08/01 07:51:45;;;;;;;2.77;2.58;;;;;;;18.51;88.19;97610.16;1744594;80;21221;-65
2022/08/01 07:54:11;;;;;;;4.58;2.72;;;;;;;18.62;87.71;97608.48;1741275;80;20943;-66
2022/08/01 07:56:38;;;;;;;3.30;3.00;;;;;;;18.70;87.46;97610.20;1745649;81;21086;-66
2022/08/01 07:59:04;;;;;;;2.92;2.65;;;;;;;18.83;87.04;97611.70;1743023;80;21129;-65
2022/08/01 08:01:31;;;;;;;3.27;2.58;;;;;;;18.98;86.71;97614.17;1742362;81;21063;-66
2022/08/01 08:03:57;;;;;;;2.90;2.60;;;;;;;19.13;85.69;97611.41;1744964;80;21107;-67
2022/08/01 08:06:24;;;;;;;3.27;2.10;;;;;;;19.26;85.50;97612.08;1749440;81;21090;-67
2022/08/01 08:08:53;;;;;;;2.75;2.37;;;;;;;19.33;83.27;97610.08;1744797;80;21094;-66
2022/08/01 08:11:19;;;;;;;2.98;2.40;;;;;;;19.30;82.60;97614.86;1737772;80;21605;-66
2022/08/01 08:13:46;;;;;;;3.33;2.20;;;;;;;19.24;82.93;97619.01;1741137;80;21043;-66
2022/08/01 08:16:12;;;;;;;2.50;2.30;;;;;;;19.23;83.29;97621.49;1757876;80;21831;-67
2022/08/01 08:18:39;;;;;;;2.75;2.50;;;;;;;19.21;83.42;97629.21;1739074;80;21079;-66
2022/08/01 08:21:19;;;;;;;2.65;2.10;;;;;;;19.17;83.77;97629.15;1753152;80;21110;-66
2022/08/01 08:26:35;;;;;;;3.65;2.80;;;;;;;19.09;83.45;97639.05;1741762;80;21118;-66
2022/08/01 08:29:04;;;;;;;5.80;2.95;;;;;;;19.05;83.93;97638.76;1740380;80;21211;-65
2022/08/01 08:31:31;;;;;;;3.00;2.80;;;;;;;19.09;84.87;97639.62;1739718;80;20960;-65
2022/08/01 08:33:59;;;;;;;4.42;2.50;;;;;;;19.15;85.07;97641.50;1739693;80;21075;-67
2022/08/01 08:36:25;;;;;;;2.85;2.55;;;;;;;19.22;84.81;97644.38;1768775;80;21055;-62
2022/08/01 08:38:51;;;;;;;2.72;2.52;;;;;;;19.26;84.40;97639.80;1730984;81;21039;-68
2022/08/01 08:41:18;;;;;;;3.27;2.77;;;;;;;19.28;84.77;97640.22;1744850;80;21117;-69
2022/08/01 08:43:44;;;;;;;2.83;2.62;;;;;;;19.26;84.18;97637.08;1752900;80;20975;-67
2022/08/01 08:46:11;;;;;;;2.80;2.60;;;;;;;19.29;84.18;97634.43;1751942;80;21063;-66
2022/08/01 08:48:39;;;;;;;2.47;2.27;;;;;;;19.32;83.71;97641.88;1752250;80;21071;-66
2022/08/01 08:51:08;;;;;;;2.62;2.42;;;;;;;19.35;83.00;97637.66;1738466;80;21568;-68
2022/08/01 08:53:35;;;;;;;3.02;2.20;;;;;;;19.40;83.51;97640.93;1737282;81;21250;-66
2022/08/01 08:56:04;;;;;;;2.50;2.30;;;;;;;19.46;83.36;97642.20;1722260;83;20951;-67
2022/08/01 08:58:33;;;;;;;2.10;1.90;;;;;;;19.54;82.75;97639.08;1707192;81;21103;-66
2022/08/01 09:01:00;;;;;;;2.83;2.47;;;;;;;19.49;82.03;97646.14;1735535;81;21171;-66
2022/08/01 09:03:26;;;;;;;4.08;2.10;;;;;;;19.42;82.27;97652.78;1728794;81;21501;-68
2022/08/01 09:05:53;;;;;;;2.33;2.10;;;;;;;19.28;82.82;97665.45;1732349;81;21911;-66
2022/08/01 09:08:19;;;;;;;3.98;2.70;;;;;;;19.10;83.17;97667.75;1742182;81;21496;-67
2022/08/01 09:10:45;;;;;;;3.62;2.70;;;;;;;18.90;83.93;97672.12;1737966;81;21350;-67
2022/08/01 09:13:14;;;;;;;4.25;3.25;;;;;;;18.78;84.71;97670.86;1733045;81;21091;-67
2022/08/01 09:15:47;;;;;;;3.33;3.02;;;;;;;18.70;85.29;97668.53;1741359;81;21052;-67
2022/08/01 09:18:35;;;;;;;4.58;2.72;;;;;;;18.64;85.72;97675.37;1728077;81;21230;-67
2022/08/01 09:21:17;;;;;;;3.75;3.17;;;;;;;18.62;86.25;97675.50;1739560;81;21133;-69
2022/08/01 09:23:52;;;;;;;7.00;3.67;;;;;;;18.65;86.40;97678.31;1735432;81;21549;-67
2022/08/01 09:26:30;;;;;;;4.10;3.40;;;;;;;18.68;86.17;97673.53;1746765;81;28136;-69
2022/08/01 09:28:58;;;;;;;4.10;3.30;;;;;;;18.72;86.52;97677.70;1732571;81;21493;-67
2022/08/01 09:31:26;;;;;;;3.27;2.98;;;;;;;18.77;86.71;97674.13;1734227;81;21115;-68
2022/08/01 09:33:58;;;;;;;3.17;2.92;;;;;;;18.80;85.57;97678.86;1732174;81;21083;-67
2022/08/01 09:39:01;;;;;;;4.15;3.55;;;;;;;18.85;85.08;97681.32;1756089;79;21066;-67
2022/08/01 09:41:33;;;;;;;4.47;3.12;;;;;;;18.91;85.15;97680.49;1745377;79;21086;-65
2022/08/01 09:43:59;;;;;;;3.30;3.00;;;;;;;18.94;85.32;97685.99;1761296;79;21076;-66
2022/08/01 09:46:26;;;;;;;3.75;3.30;;;;;;;18.95;85.30;97679.44;1763047;79;21048;-66
2022/08/01 09:49:05;;;;;;;4.40;3.60;;;;;;;18.99;85.46;97680.30;1770747;79;20960;-66
2022/08/01 09:51:35;;;;;;;7.10;4.00;;;;;;;18.99;85.52;97683.58;1775799;79;21129;-66
2022/08/01 09:54:08;;;;;;;4.00;3.70;;;;;;;18.95;85.78;97684.07;1754929;80;21431;-65
2022/08/01 09:56:45;;;;;;;4.35;3.90;;;;;;;18.96;85.98;97682.95;1737449;82;21118;-66
2022/08/01 09:59:12;;;;;;;4.40;4.00;;;;;;;18.99;85.65;97677.59;1740451;82;21040;-67
2022/08/01 10:01:46;;;;;;;7.95;4.33;;;;;;;19.06;85.72;97672.33;1689805;82;21064;-65
2022/08/01 10:04:19;;;;;;;8.13;5.22;;;;;;;19.15;85.40;97679.50;1739387;80;21474;-65
2022/08/01 10:06:56;;;;;;;5.72;5.22;;;;;;;19.29;85.19;97682.54;1739109;80;21135;-68
2022/08/01 10:09:33;;;;;;;5.33;4.83;;;;;;;19.46;84.68;97675.36;1755347;80;21085;-64
2022/08/01 10:12:01;;;;;;;5.08;4.58;;;;;;;19.60;83.53;97677.02;1736524;80;21079;-67
2022/08/01 10:14:28;;;;;;;5.33;4.72;;;;;;;19.64;82.46;97679.27;1739003;80;21029;-65
2022/08/01 10:16:57;;;;;;;5.08;4.67;;;;;;;19.66;82.61;97675.62;1738935;82;20917;-66
2022/08/01 10:19:26;;;;;;;5.65;5.17;;;;;;;19.75;82.31;97676.98;1742486;80;20956;-65
2022/08/01 10:21:54;;;;;;;6.40;5.03;;;;;;;19.75;82.16;97680.27;1737796;82;21069;-65
2022/08/01 10:24:21;;;;;;;6.90;4.87;;;;;;;19.78;82.15;97680.33;1738000;82;20924;-65
2022/08/01 10:26:49;;;;;;;5.95;4.55;;;;;;;19.76;82.47;97675.03;1739794;80;20924;-66
2022/08/01 10:29:18;;;;;;;6.72;4.42;;;;;;;19.75;82.24;97677.55;1703788;81;20984;-65
2022/08/01 10:31:46;;;;;;;4.75;4.35;;;;;;;19.67;82.07;97683.97;1747557;80;21483;-65
2022/08/01 10:34:15;;;;;;;4.90;4.50;;;;;;;19.59;81.85;97683.05;1736737;82;21945;-65
2022/08/01 10:36:43;;;;;;;4.87;4.33;;;;;;;19.42;82.00;97679.94;1745233;80;21004;-65
2022/08/01 10:39:18;;;;;;;5.60;3.95;;;;;;;19.30;82.72;97684.89;1741848;80;21115;-66
2022/08/01 10:41:45;;;;;;;6.97;4.40;;;;;;;19.26;83.29;97690.03;1742988;82;21032;-67
2022/08/01 10:44:12;;;;;;;6.65;4.95;;;;;;;19.25;83.72;97689.80;1742620;80;21086;-66
2022/08/01 10:46:41;;;;;;;5.33;4.83;;;;;;;19.27;83.72;97694.30;1741579;82;21071;-66
2022/08/01 10:49:14;;;;;;;4.80;4.40;;;;;;;19.27;83.38;97698.38;1742697;80;21047;-67
2022/08/01 10:51:40;;;;;;;5.80;4.60;;;;;;;19.21;83.55;97696.52;1741816;82;21553;-66
2022/08/01 10:54:08;;;;;;;5.00;4.60;;;;;;;19.21;83.73;97690.30;1754288;79;21064;-65
2022/08/01 10:56:48;;;;;;;5.12;4.72;;;;;;;19.23;83.44;97693.44;1755868;80;21047;-67
2022/08/01 10:59:21;;;;;;;5.10;4.67;;;;;;;19.19;83.37;97691.22;1750455;79;21298;-67
2022/08/01 11:02:00;;;;;;;5.25;4.75;;;;;;;19.27;83.88;97689.66;1754125;80;20940;-66
2022/08/01 11:04:57;;;;;;;8.38;4.60;;;;;;;19.40;84.05;97691.73;1752526;80;21052;-62
2022/08/01 11:07:26;;;;;;;5.10;3.87;;;;;;;19.58;83.72;97685.55;1754570;80;21036;-65
2022/08/01 11:10:10;;;;;;;4.25;3.85;;;;;;;19.84;83.01;97682.20;1777218;78;21067;-65
2022/08/01 11:12:39;;;;;;;4.60;4.20;;;;;;;20.03;82.17;97682.20;1752732;80;22214;-64
2022/08/01 11:15:15;;;;;;;5.55;3.90;;;;;;;20.22;81.88;97680.85;1739790;80;21058;-64
2022/08/01 11:17:47;;;;;;;4.00;3.60;;;;;;;20.41;81.16;97683.54;1739822;80;21119;-68
2022/08/01 11:20:24;;;;;;;3.47;3.20;;;;;;;20.56;80.67;97679.71;1727269;81;21044;-68
2022/08/01 11:23:05;;;;;;;3.37;3.08;;;;;;;20.63;79.82;97681.98;1731290;80;21081;-65
2022/08/01 11:25:46;;;;;;;3.52;2.90;;;;;;;20.72;78.14;97679.02;1736174;81;21222;-64
2022/08/01 11:28:26;;;;;;;5.05;2.92;;;;;;;20.71;77.98;97673.34;1739294;81;21047;-66
2022/08/01 11:31:15;;;;;;;3.05;2.72;;;;;;;20.72;77.90;97676.30;1743014;81;21074;-65
2022/08/01 11:39:11;;;;;;;3.37;3.10;;;;;;;20.45;77.57;97678.94;1743004;81;21559;-65
2022/08/01 11:41:38;;;;;;;4.17;3.10;;;;;;;20.28;78.37;97682.12;1743637;81;21051;-62
2022/08/01 11:44:19;;;;;;;3.50;3.20;;;;;;;20.12;78.68;97680.03;1737965;81;21094;-65
2022/08/01 11:47:09;;;;;;;4.20;3.80;;;;;;;20.05;78.83;97688.05;1742203;81;21399;-67
2022/08/01 11:49:47;;;;;;;4.12;3.52;;;;;;;19.94;79.10;97683.55;1739296;81;21134;-68
2022/08/01 11:52:38;;;;;;;4.05;3.67;;;;;;;19.94;79.71;97680.84;1737220;81;21224;-65